sensor_id;sensor_type;location;lat;lon;timestamp;P1;durP1;ratioP1;P2;durP2;ratioP2
78916;SDS011;68315;48.608;11.436;2023-03-31T00:01:47;5.18;;;2.90;;
78916;SDS011;68315;48.608;11.436;2023-03-31T00:04:12;5.97;;;3.45;;
78916;SDS011;68315;48.608;11.436;2023-03-31T00:06:38;5.63;;;3.05;;
78916;SDS011;68315;48.608;11.436;2023-03-31T00:09:10;6.55;;;3.45;;
78916;SDS011;68315;48.608;11.436;2023-03-31T00:11:37;9.52;;;3.40;;
78916;SDS011;68315;48.608;11.436;2023-03-31T00:14:04;7.10;;;3.53;;
78916;SDS011;68315;48.608;11.436;2023-03-31T00:16:31;6.85;;;4.10;;
78916;SDS011;68315;48.608;11.436;2023-03-31T00:19:00;8.32;;;3.30;;
78916;SDS011;68315;48.608;11.436;2023-03-31T00:21:26;4.40;;;2.83;;
78916;SDS011;68315;48.608;11.436;2023-03-31T00:23:55;8.80;;;3.72;;
78916;SDS011;68315;48.608;11.436;2023-03-31T00:26:22;6.15;;;3.38;;
78916;SDS011;68315;48.608;11.436;2023-03-31T00:28:48;6.47;;;3.50;;
78916;SDS011;68315;48.608;11.436;2023-03-31T00:31:14;7.47;;;3.70;;
78916;SDS011;68315;48.608;11.436;2023-03-31T00:33:39;6.47;;;3.00;;
78916;SDS011;68315;48.608;11.436;2023-03-31T00:36:05;6.43;;;3.10;;
78916;SDS011;68315;48.608;11.436;2023-03-31T00:38:33;7.03;;;3.03;;
78916;SDS011;68315;48.608;11.436;2023-03-31T00:40:59;4.18;;;2.20;;
78916;SDS011;68315;48.608;11.436;2023-03-31T00:43:26;5.63;;;3.10;;
78916;SDS011;68315;48.608;11.436;2023-03-31T00:45:59;5.88;;;2.85;;
78916;SDS011;68315;48.608;11.436;2023-03-31T00:48:28;4.97;;;2.53;;
78916;SDS011;68315;48.608;11.436;2023-03-31T00:50:55;4.20;;;2.13;;
78916;SDS011;68315;48.608;11.436;2023-03-31T00:53:24;3.33;;;1.70;;
78916;SDS011;68315;48.608;11.436;2023-03-31T00:55:54;2.25;;;1.75;;
78916;SDS011;68315;48.608;11.436;2023-03-31T00:58:23;3.58;;;2.05;;
78916;SDS011;68315;48.608;11.436;2023-03-31T01:00:52;3.45;;;1.90;;
78916;SDS011;68315;48.608;11.436;2023-03-31T01:03:19;2.42;;;1.95;;
78916;SDS011;68315;48.608;11.436;2023-03-31T01:05:47;5.93;;;3.00;;
78916;SDS011;68315;48.608;11.436;2023-03-31T01:08:18;6.03;;;2.83;;
78916;SDS011;68315;48.608;11.436;2023-03-31T01:10:49;5.95;;;2.72;;
78916;SDS011;68315;48.608;11.436;2023-03-31T01:13:16;7.35;;;3.38;;
78916;SDS011;68315;48.608;11.436;2023-03-31T01:15:43;10.05;;;4.07;;
78916;SDS011;68315;48.608;11.436;2023-03-31T01:18:09;10.10;;;3.85;;
78916;SDS011;68315;48.608;11.436;2023-03-31T01:20:45;7.05;;;3.92;;
78916;SDS011;68315;48.608;11.436;2023-03-31T01:31:33;4.15;;;2.50;;
78916;SDS011;68315;48.608;11.436;2023-03-31T01:51:07;2.45;;;1.98;;
78916;SDS011;68315;48.608;11.436;2023-03-31T01:56:17;3.17;;;1.67;;
78916;SDS011;68315;48.608;11.436;2023-03-31T01:58:49;4.15;;;2.13;;
78916;SDS011;68315;48.608;11.436;2023-03-31T02:01:26;7.05;;;3.30;;
78916;SDS011;68315;48.608;11.436;2023-03-31T02:03:56;4.60;;;2.30;;
78916;SDS011;68315;48.608;11.436;2023-03-31T02:06:27;3.58;;;2.00;;
78916;SDS011;68315;48.608;11.436;2023-03-31T02:09:02;3.45;;;1.50;;
78916;SDS011;68315;48.608;11.436;2023-03-31T02:11:31;5.50;;;2.50;;
78916;SDS011;68315;48.608;11.436;2023-03-31T02:13:58;4.07;;;2.60;;
78916;SDS011;68315;48.608;11.436;2023-03-31T02:16:26;3.63;;;2.28;;
78916;SDS011;68315;48.608;11.436;2023-03-31T02:18:55;3.75;;;2.40;;
78916;SDS011;68315;48.608;11.436;2023-03-31T02:21:26;5.68;;;3.50;;
78916;SDS011;68315;48.608;11.436;2023-03-31T02:23:53;3.17;;;2.40;;
78916;SDS011;68315;48.608;11.436;2023-03-31T02:26:23;8.75;;;3.88;;
78916;SDS011;68315;48.608;11.436;2023-03-31T02:28:52;5.55;;;3.63;;
78916;SDS011;68315;48.608;11.436;2023-03-31T02:33:49;6.28;;;5.45;;
78916;SDS011;68315;48.608;11.436;2023-03-31T02:36:15;6.55;;;4.13;;
78916;SDS011;68315;48.608;11.436;2023-03-31T02:38:42;5.82;;;3.72;;
78916;SDS011;68315;48.608;11.436;2023-03-31T02:41:11;7.25;;;3.65;;
78916;SDS011;68315;48.608;11.436;2023-03-31T02:43:36;8.50;;;3.38;;
78916;SDS011;68315;48.608;11.436;2023-03-31T02:46:02;4.88;;;3.67;;
78916;SDS011;68315;48.608;11.436;2023-03-31T02:48:28;6.95;;;4.20;;
78916;SDS011;68315;48.608;11.436;2023-03-31T03:01:33;7.47;;;5.25;;
78916;SDS011;68315;48.608;11.436;2023-03-31T03:07:07;6.20;;;4.38;;
78916;SDS011;68315;48.608;11.436;2023-03-31T03:09:44;8.20;;;3.60;;
78916;SDS011;68315;48.608;11.436;2023-03-31T03:12:49;5.55;;;3.03;;
78916;SDS011;68315;48.608;11.436;2023-03-31T03:17:54;6.22;;;4.60;;
78916;SDS011;68315;48.608;11.436;2023-03-31T03:20:21;7.97;;;4.70;;
78916;SDS011;68315;48.608;11.436;2023-03-31T03:22:46;11.68;;;4.72;;
78916;SDS011;68315;48.608;11.436;2023-03-31T03:25:12;5.50;;;3.85;;
78916;SDS011;68315;48.608;11.436;2023-03-31T03:27:41;9.30;;;5.50;;
78916;SDS011;68315;48.608;11.436;2023-03-31T03:30:07;8.85;;;5.45;;
78916;SDS011;68315;48.608;11.436;2023-03-31T03:32:34;9.45;;;5.80;;
78916;SDS011;68315;48.608;11.436;2023-03-31T03:35:00;8.98;;;5.70;;
78916;SDS011;68315;48.608;11.436;2023-03-31T03:37:26;9.93;;;5.93;;
78916;SDS011;68315;48.608;11.436;2023-03-31T03:39:52;8.25;;;5.07;;
78916;SDS011;68315;48.608;11.436;2023-03-31T03:42:17;9.90;;;5.97;;
78916;SDS011;68315;48.608;11.436;2023-03-31T03:44:43;10.68;;;6.28;;
78916;SDS011;68315;48.608;11.436;2023-03-31T03:47:08;12.52;;;5.88;;
78916;SDS011;68315;48.608;11.436;2023-03-31T03:49:33;11.95;;;6.53;;
78916;SDS011;68315;48.608;11.436;2023-03-31T03:51:59;9.50;;;6.10;;
78916;SDS011;68315;48.608;11.436;2023-03-31T03:54:24;9.80;;;5.45;;
78916;SDS011;68315;48.608;11.436;2023-03-31T03:56:49;10.30;;;6.30;;
78916;SDS011;68315;48.608;11.436;2023-03-31T03:59:15;7.43;;;5.57;;
78916;SDS011;68315;48.608;11.436;2023-03-31T04:01:40;11.55;;;5.80;;
78916;SDS011;68315;48.608;11.436;2023-03-31T04:04:05;10.40;;;5.82;;
78916;SDS011;68315;48.608;11.436;2023-03-31T04:06:30;10.32;;;5.82;;
78916;SDS011;68315;48.608;11.436;2023-03-31T04:08:56;12.45;;;6.18;;
78916;SDS011;68315;48.608;11.436;2023-03-31T04:11:21;8.55;;;5.78;;
78916;SDS011;68315;48.608;11.436;2023-03-31T04:13:47;9.45;;;5.85;;
78916;SDS011;68315;48.608;11.436;2023-03-31T04:16:12;10.68;;;5.55;;
78916;SDS011;68315;48.608;11.436;2023-03-31T04:18:38;13.15;;;6.60;;
78916;SDS011;68315;48.608;11.436;2023-03-31T04:21:09;9.45;;;5.78;;
78916;SDS011;68315;48.608;11.436;2023-03-31T04:23:39;8.88;;;6.10;;
78916;SDS011;68315;48.608;11.436;2023-03-31T04:26:10;8.48;;;5.85;;
78916;SDS011;68315;48.608;11.436;2023-03-31T04:28:36;9.43;;;5.72;;
78916;SDS011;68315;48.608;11.436;2023-03-31T04:31:07;12.00;;;6.57;;
78916;SDS011;68315;48.608;11.436;2023-03-31T04:33:33;13.05;;;6.10;;
78916;SDS011;68315;48.608;11.436;2023-03-31T04:36:02;11.73;;;6.65;;
78916;SDS011;68315;48.608;11.436;2023-03-31T04:38:31;9.43;;;5.85;;
78916;SDS011;68315;48.608;11.436;2023-03-31T04:41:00;9.32;;;5.82;;
78916;SDS011;68315;48.608;11.436;2023-03-31T04:43:25;16.33;;;6.28;;
78916;SDS011;68315;48.608;11.436;2023-03-31T04:45:50;11.52;;;6.10;;
78916;SDS011;68315;48.608;11.436;2023-03-31T04:48:16;12.05;;;6.20;;
78916;SDS011;68315;48.608;11.436;2023-03-31T04:50:41;8.18;;;5.55;;
78916;SDS011;68315;48.608;11.436;2023-03-31T04:53:07;9.35;;;6.15;;
78916;SDS011;68315;48.608;11.436;2023-03-31T04:55:32;7.40;;;5.63;;
78916;SDS011;68315;48.608;11.436;2023-03-31T04:57:58;11.02;;;5.95;;
78916;SDS011;68315;48.608;11.436;2023-03-31T05:00:23;11.88;;;6.40;;
78916;SDS011;68315;48.608;11.436;2023-03-31T05:02:49;10.80;;;5.80;;
78916;SDS011;68315;48.608;11.436;2023-03-31T05:05:15;10.40;;;6.20;;
78916;SDS011;68315;48.608;11.436;2023-03-31T05:07:46;7.97;;;6.63;;
78916;SDS011;68315;48.608;11.436;2023-03-31T05:10:12;11.65;;;6.55;;
78916;SDS011;68315;48.608;11.436;2023-03-31T05:12:37;9.75;;;6.85;;
78916;SDS011;68315;48.608;11.436;2023-03-31T05:15:03;11.63;;;6.70;;
78916;SDS011;68315;48.608;11.436;2023-03-31T05:17:30;11.25;;;6.15;;
78916;SDS011;68315;48.608;11.436;2023-03-31T05:19:57;11.63;;;6.13;;
78916;SDS011;68315;48.608;11.436;2023-03-31T05:22:22;13.10;;;6.32;;
78916;SDS011;68315;48.608;11.436;2023-03-31T05:24:47;11.00;;;6.22;;
78916;SDS011;68315;48.608;11.436;2023-03-31T05:27:12;12.23;;;6.25;;
78916;SDS011;68315;48.608;11.436;2023-03-31T05:29:38;14.88;;;6.30;;
78916;SDS011;68315;48.608;11.436;2023-03-31T05:32:03;9.48;;;6.18;;
78916;SDS011;68315;48.608;11.436;2023-03-31T05:34:29;10.25;;;6.03;;
78916;SDS011;68315;48.608;11.436;2023-03-31T05:36:54;9.55;;;5.97;;
78916;SDS011;68315;48.608;11.436;2023-03-31T05:39:20;9.35;;;5.80;;
78916;SDS011;68315;48.608;11.436;2023-03-31T05:41:46;10.45;;;6.30;;
78916;SDS011;68315;48.608;11.436;2023-03-31T05:44:11;12.25;;;6.90;;
78916;SDS011;68315;48.608;11.436;2023-03-31T05:46:36;11.07;;;7.15;;
78916;SDS011;68315;48.608;11.436;2023-03-31T05:49:02;9.77;;;5.95;;
78916;SDS011;68315;48.608;11.436;2023-03-31T05:51:27;12.90;;;6.55;;
78916;SDS011;68315;48.608;11.436;2023-03-31T05:53:52;10.43;;;6.43;;
78916;SDS011;68315;48.608;11.436;2023-03-31T05:56:18;11.95;;;6.57;;
78916;SDS011;68315;48.608;11.436;2023-03-31T05:58:43;11.10;;;6.20;;
78916;SDS011;68315;48.608;11.436;2023-03-31T06:01:10;12.35;;;7.60;;
78916;SDS011;68315;48.608;11.436;2023-03-31T06:03:38;10.30;;;6.90;;
78916;SDS011;68315;48.608;11.436;2023-03-31T06:06:07;11.70;;;7.03;;
78916;SDS011;68315;48.608;11.436;2023-03-31T06:08:34;12.32;;;7.18;;
78916;SDS011;68315;48.608;11.436;2023-03-31T06:11:02;12.73;;;6.95;;
78916;SDS011;68315;48.608;11.436;2023-03-31T06:13:31;12.60;;;7.38;;
78916;SDS011;68315;48.608;11.436;2023-03-31T06:15:56;13.32;;;6.68;;
78916;SDS011;68315;48.608;11.436;2023-03-31T06:18:24;11.35;;;6.85;;
78916;SDS011;68315;48.608;11.436;2023-03-31T06:20:52;12.27;;;7.25;;
78916;SDS011;68315;48.608;11.436;2023-03-31T06:23:17;12.27;;;6.78;;
78916;SDS011;68315;48.608;11.436;2023-03-31T06:25:43;12.23;;;6.63;;
78916;SDS011;68315;48.608;11.436;2023-03-31T06:28:10;14.52;;;6.85;;
78916;SDS011;68315;48.608;11.436;2023-03-31T06:30:36;11.90;;;7.22;;
78916;SDS011;68315;48.608;11.436;2023-03-31T06:33:01;10.43;;;5.47;;
78916;SDS011;68315;48.608;11.436;2023-03-31T06:35:27;10.25;;;7.25;;
78916;SDS011;68315;48.608;11.436;2023-03-31T06:37:53;11.70;;;6.60;;
78916;SDS011;68315;48.608;11.436;2023-03-31T06:40:18;11.77;;;6.45;;
78916;SDS011;68315;48.608;11.436;2023-03-31T06:42:43;9.85;;;6.68;;
78916;SDS011;68315;48.608;11.436;2023-03-31T06:45:09;15.73;;;7.18;;
78916;SDS011;68315;48.608;11.436;2023-03-31T06:47:37;12.40;;;7.05;;
78916;SDS011;68315;48.608;11.436;2023-03-31T06:50:05;9.93;;;6.07;;
78916;SDS011;68315;48.608;11.436;2023-03-31T06:52:32;9.43;;;6.32;;
78916;SDS011;68315;48.608;11.436;2023-03-31T06:54:58;10.25;;;6.45;;
78916;SDS011;68315;48.608;11.436;2023-03-31T06:57:24;9.80;;;6.90;;
78916;SDS011;68315;48.608;11.436;2023-03-31T06:59:53;10.60;;;6.80;;
78916;SDS011;68315;48.608;11.436;2023-03-31T07:02:19;9.52;;;5.03;;
78916;SDS011;68315;48.608;11.436;2023-03-31T07:04:44;14.52;;;7.10;;
78916;SDS011;68315;48.608;11.436;2023-03-31T07:07:09;12.88;;;7.93;;
78916;SDS011;68315;48.608;11.436;2023-03-31T07:09:35;11.45;;;8.15;;
78916;SDS011;68315;48.608;11.436;2023-03-31T07:12:00;14.35;;;8.85;;
78916;SDS011;68315;48.608;11.436;2023-03-31T07:14:28;11.65;;;7.25;;
78916;SDS011;68315;48.608;11.436;2023-03-31T07:16:54;13.75;;;7.95;;
78916;SDS011;68315;48.608;11.436;2023-03-31T07:19:19;12.00;;;7.72;;
78916;SDS011;68315;48.608;11.436;2023-03-31T07:21:44;12.52;;;8.70;;
78916;SDS011;68315;48.608;11.436;2023-03-31T07:24:10;14.50;;;8.57;;
78916;SDS011;68315;48.608;11.436;2023-03-31T07:26:35;12.63;;;9.15;;
78916;SDS011;68315;48.608;11.436;2023-03-31T07:29:00;12.45;;;7.25;;
78916;SDS011;68315;48.608;11.436;2023-03-31T07:31:26;13.15;;;7.30;;
78916;SDS011;68315;48.608;11.436;2023-03-31T07:33:51;13.45;;;8.38;;
78916;SDS011;68315;48.608;11.436;2023-03-31T07:36:16;12.27;;;8.23;;
78916;SDS011;68315;48.608;11.436;2023-03-31T07:38:43;11.57;;;8.38;;
78916;SDS011;68315;48.608;11.436;2023-03-31T07:41:11;14.30;;;8.40;;
78916;SDS011;68315;48.608;11.436;2023-03-31T07:43:40;16.27;;;7.90;;
78916;SDS011;68315;48.608;11.436;2023-03-31T07:46:06;14.85;;;8.57;;
78916;SDS011;68315;48.608;11.436;2023-03-31T07:48:37;13.07;;;8.30;;
78916;SDS011;68315;48.608;11.436;2023-03-31T07:51:02;15.13;;;8.68;;
78916;SDS011;68315;48.608;11.436;2023-03-31T07:53:28;17.75;;;8.32;;
78916;SDS011;68315;48.608;11.436;2023-03-31T07:55:53;14.75;;;8.15;;
78916;SDS011;68315;48.608;11.436;2023-03-31T07:58:18;9.98;;;7.80;;
78916;SDS011;68315;48.608;11.436;2023-03-31T08:00:44;12.88;;;7.70;;
78916;SDS011;68315;48.608;11.436;2023-03-31T08:03:09;10.93;;;6.43;;
78916;SDS011;68315;48.608;11.436;2023-03-31T08:05:34;11.63;;;7.38;;
78916;SDS011;68315;48.608;11.436;2023-03-31T08:08:00;9.95;;;7.03;;
78916;SDS011;68315;48.608;11.436;2023-03-31T08:10:26;11.13;;;7.25;;
78916;SDS011;68315;48.608;11.436;2023-03-31T08:12:52;11.25;;;7.00;;
78916;SDS011;68315;48.608;11.436;2023-03-31T08:15:17;13.30;;;7.32;;
78916;SDS011;68315;48.608;11.436;2023-03-31T08:17:46;12.02;;;7.28;;
78916;SDS011;68315;48.608;11.436;2023-03-31T08:20:11;11.50;;;7.28;;
78916;SDS011;68315;48.608;11.436;2023-03-31T08:22:37;10.90;;;7.40;;
78916;SDS011;68315;48.608;11.436;2023-03-31T08:25:04;11.25;;;7.80;;
78916;SDS011;68315;48.608;11.436;2023-03-31T08:27:37;14.45;;;7.60;;
78916;SDS011;68315;48.608;11.436;2023-03-31T08:30:04;14.38;;;8.25;;
78916;SDS011;68315;48.608;11.436;2023-03-31T08:32:32;13.50;;;7.90;;
78916;SDS011;68315;48.608;11.436;2023-03-31T08:34:58;15.15;;;8.38;;
78916;SDS011;68315;48.608;11.436;2023-03-31T08:37:24;10.27;;;7.55;;
78916;SDS011;68315;48.608;11.436;2023-03-31T08:39:52;13.55;;;9.02;;
78916;SDS011;68315;48.608;11.436;2023-03-31T08:42:24;12.75;;;8.77;;
78916;SDS011;68315;48.608;11.436;2023-03-31T08:45:43;16.98;;;9.63;;
78916;SDS011;68315;48.608;11.436;2023-03-31T08:47:59;12.65;;;8.38;;
78916;SDS011;68315;48.608;11.436;2023-03-31T08:50:45;13.52;;;9.50;;
78916;SDS011;68315;48.608;11.436;2023-03-31T08:55:55;12.65;;;7.20;;
78916;SDS011;68315;48.608;11.436;2023-03-31T08:58:41;10.52;;;6.38;;
78916;SDS011;68315;48.608;11.436;2023-03-31T09:01:52;10.30;;;5.65;;
78916;SDS011;68315;48.608;11.436;2023-03-31T09:15:01;6.82;;;4.85;;
78916;SDS011;68315;48.608;11.436;2023-03-31T09:17:41;7.28;;;4.65;;
78916;SDS011;68315;48.608;11.436;2023-03-31T09:20:17;6.60;;;4.57;;
78916;SDS011;68315;48.608;11.436;2023-03-31T09:22:46;7.32;;;4.60;;
78916;SDS011;68315;48.608;11.436;2023-03-31T09:25:18;7.28;;;4.57;;
78916;SDS011;68315;48.608;11.436;2023-03-31T09:27:47;6.07;;;4.72;;
78916;SDS011;68315;48.608;11.436;2023-03-31T09:30:18;7.85;;;5.20;;
78916;SDS011;68315;48.608;11.436;2023-03-31T09:32:48;7.18;;;4.40;;
78916;SDS011;68315;48.608;11.436;2023-03-31T09:35:20;5.13;;;4.07;;
78916;SDS011;68315;48.608;11.436;2023-03-31T09:37:48;7.15;;;3.83;;
78916;SDS011;68315;48.608;11.436;2023-03-31T09:40:33;5.25;;;3.53;;
78916;SDS011;68315;48.608;11.436;2023-03-31T09:43:01;6.60;;;3.30;;
78916;SDS011;68315;48.608;11.436;2023-03-31T09:45:30;3.22;;;2.92;;
78916;SDS011;68315;48.608;11.436;2023-03-31T09:47:58;4.03;;;2.78;;
78916;SDS011;68315;48.608;11.436;2023-03-31T09:50:26;3.10;;;2.20;;
78916;SDS011;68315;48.608;11.436;2023-03-31T09:52:57;4.85;;;2.60;;
78916;SDS011;68315;48.608;11.436;2023-03-31T09:55:42;4.75;;;2.05;;
78916;SDS011;68315;48.608;11.436;2023-03-31T09:58:12;2.17;;;1.98;;
78916;SDS011;68315;48.608;11.436;2023-03-31T10:00:39;3.90;;;2.00;;
78916;SDS011;68315;48.608;11.436;2023-03-31T10:03:09;2.85;;;2.15;;
78916;SDS011;68315;48.608;11.436;2023-03-31T10:05:58;2.45;;;1.80;;
78916;SDS011;68315;48.608;11.436;2023-03-31T10:08:26;2.22;;;1.80;;
78916;SDS011;68315;48.608;11.436;2023-03-31T10:10:56;4.13;;;2.08;;
78916;SDS011;68315;48.608;11.436;2023-03-31T10:13:34;4.53;;;1.80;;
78916;SDS011;68315;48.608;11.436;2023-03-31T10:16:05;3.47;;;1.88;;
78916;SDS011;68315;48.608;11.436;2023-03-31T10:18:37;2.50;;;1.58;;
78916;SDS011;68315;48.608;11.436;2023-03-31T10:21:05;1.40;;;1.20;;
78916;SDS011;68315;48.608;11.436;2023-03-31T10:23:40;3.08;;;1.48;;
78916;SDS011;68315;48.608;11.436;2023-03-31T10:26:10;1.85;;;1.38;;
78916;SDS011;68315;48.608;11.436;2023-03-31T10:28:40;2.05;;;1.52;;
78916;SDS011;68315;48.608;11.436;2023-03-31T10:31:05;1.50;;;1.40;;
78916;SDS011;68315;48.608;11.436;2023-03-31T10:33:32;3.13;;;1.25;;
78916;SDS011;68315;48.608;11.436;2023-03-31T10:36:02;2.75;;;1.10;;
78916;SDS011;68315;48.608;11.436;2023-03-31T10:38:34;2.35;;;1.38;;
78916;SDS011;68315;48.608;11.436;2023-03-31T10:41:04;3.60;;;1.30;;
78916;SDS011;68315;48.608;11.436;2023-03-31T10:43:36;2.42;;;1.00;;
78916;SDS011;68315;48.608;11.436;2023-03-31T10:46:05;1.17;;;1.07;;
78916;SDS011;68315;48.608;11.436;2023-03-31T10:51:39;1.55;;;1.05;;
78916;SDS011;68315;48.608;11.436;2023-03-31T10:53:50;1.58;;;1.20;;
78916;SDS011;68315;48.608;11.436;2023-03-31T10:56:33;1.67;;;1.10;;
78916;SDS011;68315;48.608;11.436;2023-03-31T11:01:59;3.75;;;1.20;;
78916;SDS011;68315;48.608;11.436;2023-03-31T11:04:44;1.77;;;1.02;;
78916;SDS011;68315;48.608;11.436;2023-03-31T11:12:57;1.88;;;1.05;;
78916;SDS011;68315;48.608;11.436;2023-03-31T11:15:32;1.58;;;0.90;;
78916;SDS011;68315;48.608;11.436;2023-03-31T11:23:57;1.52;;;1.00;;
78916;SDS011;68315;48.608;11.436;2023-03-31T11:29:14;2.70;;;1.00;;
78916;SDS011;68315;48.608;11.436;2023-03-31T11:31:55;1.98;;;1.02;;
78916;SDS011;68315;48.608;11.436;2023-03-31T11:34:41;1.70;;;1.05;;
78916;SDS011;68315;48.608;11.436;2023-03-31T11:42:55;1.77;;;1.15;;
78916;SDS011;68315;48.608;11.436;2023-03-31T11:45:32;2.88;;;1.23;;
78916;SDS011;68315;48.608;11.436;2023-03-31T11:48:09;1.60;;;0.90;;
78916;SDS011;68315;48.608;11.436;2023-03-31T11:50:42;2.28;;;1.13;;
78916;SDS011;68315;48.608;11.436;2023-03-31T11:53:15;3.53;;;1.17;;
78916;SDS011;68315;48.608;11.436;2023-03-31T11:55:41;3.38;;;1.10;;
78916;SDS011;68315;48.608;11.436;2023-03-31T11:58:14;6.65;;;1.58;;
78916;SDS011;68315;48.608;11.436;2023-03-31T12:00:52;1.50;;;1.00;;
78916;SDS011;68315;48.608;11.436;2023-03-31T12:06:11;1.45;;;0.90;;
78916;SDS011;68315;48.608;11.436;2023-03-31T12:11:31;2.22;;;0.90;;
78916;SDS011;68315;48.608;11.436;2023-03-31T12:16:59;2.33;;;0.75;;
78916;SDS011;68315;48.608;11.436;2023-03-31T12:24:51;1.83;;;1.00;;
78916;SDS011;68315;48.608;11.436;2023-03-31T12:27:39;2.42;;;0.73;;
78916;SDS011;68315;48.608;11.436;2023-03-31T12:30:11;2.55;;;0.95;;
78916;SDS011;68315;48.608;11.436;2023-03-31T12:32:44;5.55;;;1.42;;
78916;SDS011;68315;48.608;11.436;2023-03-31T12:35:27;2.63;;;0.85;;
78916;SDS011;68315;48.608;11.436;2023-03-31T12:38:08;1.60;;;0.85;;
78916;SDS011;68315;48.608;11.436;2023-03-31T12:40:55;2.28;;;0.80;;
78916;SDS011;68315;48.608;11.436;2023-03-31T12:43:48;0.95;;;0.60;;
78916;SDS011;68315;48.608;11.436;2023-03-31T12:51:57;4.80;;;1.00;;
78916;SDS011;68315;48.608;11.436;2023-03-31T12:57:20;2.13;;;0.70;;
78916;SDS011;68315;48.608;11.436;2023-03-31T13:02:41;1.92;;;0.80;;
78916;SDS011;68315;48.608;11.436;2023-03-31T13:08:00;3.33;;;1.10;;
78916;SDS011;68315;48.608;11.436;2023-03-31T13:10:26;2.03;;;0.82;;
78916;SDS011;68315;48.608;11.436;2023-03-31T13:13:02;4.72;;;1.17;;
78916;SDS011;68315;48.608;11.436;2023-03-31T13:15:37;3.85;;;0.90;;
78916;SDS011;68315;48.608;11.436;2023-03-31T13:18:03;2.15;;;0.68;;
78916;SDS011;68315;48.608;11.436;2023-03-31T13:20:37;1.85;;;0.50;;
78916;SDS011;68315;48.608;11.436;2023-03-31T13:23:06;2.58;;;0.52;;
78916;SDS011;68315;48.608;11.436;2023-03-31T13:28:17;0.70;;;0.50;;
78916;SDS011;68315;48.608;11.436;2023-03-31T13:30:53;1.20;;;0.60;;
78916;SDS011;68315;48.608;11.436;2023-03-31T13:33:25;0.98;;;0.55;;
78916;SDS011;68315;48.608;11.436;2023-03-31T13:35:56;2.78;;;0.60;;
78916;SDS011;68315;48.608;11.436;2023-03-31T13:50:11;0.80;;;0.45;;
78916;SDS011;68315;48.608;11.436;2023-03-31T13:53:16;0.30;;;0.30;;
78916;SDS011;68315;48.608;11.436;2023-03-31T13:58:42;0.70;;;0.40;;
78916;SDS011;68315;48.608;11.436;2023-03-31T14:06:55;1.05;;;0.50;;
78916;SDS011;68315;48.608;11.436;2023-03-31T14:09:33;0.30;;;0.30;;
78916;SDS011;68315;48.608;11.436;2023-03-31T14:12:30;2.00;;;0.50;;
78916;SDS011;68315;48.608;11.436;2023-03-31T14:14:58;1.20;;;0.60;;
78916;SDS011;68315;48.608;11.436;2023-03-31T14:17:30;0.52;;;0.50;;
78916;SDS011;68315;48.608;11.436;2023-03-31T14:20:08;1.08;;;0.50;;
78916;SDS011;68315;48.608;11.436;2023-03-31T14:25:18;1.50;;;0.70;;
78916;SDS011;68315;48.608;11.436;2023-03-31T14:28:04;1.90;;;0.60;;
78916;SDS011;68315;48.608;11.436;2023-03-31T14:38:46;1.08;;;0.57;;
78916;SDS011;68315;48.608;11.436;2023-03-31T14:41:15;2.03;;;0.70;;
78916;SDS011;68315;48.608;11.436;2023-03-31T14:43:53;2.38;;;0.88;;
78916;SDS011;68315;48.608;11.436;2023-03-31T14:46:21;2.40;;;0.85;;
78916;SDS011;68315;48.608;11.436;2023-03-31T14:48:47;3.38;;;0.80;;
78916;SDS011;68315;48.608;11.436;2023-03-31T14:51:17;1.35;;;0.70;;
78916;SDS011;68315;48.608;11.436;2023-03-31T14:53:54;3.30;;;0.90;;
78916;SDS011;68315;48.608;11.436;2023-03-31T14:56:21;2.80;;;0.90;;
78916;SDS011;68315;48.608;11.436;2023-03-31T14:58:54;2.90;;;0.80;;
78916;SDS011;68315;48.608;11.436;2023-03-31T15:01:24;1.85;;;0.68;;
78916;SDS011;68315;48.608;11.436;2023-03-31T15:03:53;3.08;;;0.90;;
78916;SDS011;68315;48.608;11.436;2023-03-31T15:06:22;1.85;;;0.70;;
78916;SDS011;68315;48.608;11.436;2023-03-31T15:08:49;1.33;;;0.80;;
78916;SDS011;68315;48.608;11.436;2023-03-31T15:11:21;1.30;;;0.80;;
78916;SDS011;68315;48.608;11.436;2023-03-31T15:13:47;1.45;;;0.80;;
78916;SDS011;68315;48.608;11.436;2023-03-31T15:16:29;3.72;;;0.90;;
78916;SDS011;68315;48.608;11.436;2023-03-31T15:19:18;4.20;;;1.00;;
78916;SDS011;68315;48.608;11.436;2023-03-31T15:21:47;1.92;;;1.00;;
78916;SDS011;68315;48.608;11.436;2023-03-31T15:24:20;2.93;;;0.80;;
78916;SDS011;68315;48.608;11.436;2023-03-31T15:26:47;2.55;;;1.02;;
78916;SDS011;68315;48.608;11.436;2023-03-31T15:29:42;3.25;;;0.90;;
78916;SDS011;68315;48.608;11.436;2023-03-31T15:32:18;2.53;;;0.75;;
78916;SDS011;68315;48.608;11.436;2023-03-31T15:34:49;3.58;;;1.00;;
78916;SDS011;68315;48.608;11.436;2023-03-31T15:37:15;3.42;;;0.90;;
78916;SDS011;68315;48.608;11.436;2023-03-31T15:39:43;2.70;;;0.88;;
78916;SDS011;68315;48.608;11.436;2023-03-31T15:42:10;3.17;;;1.17;;
78916;SDS011;68315;48.608;11.436;2023-03-31T15:44:46;3.80;;;0.82;;
78916;SDS011;68315;48.608;11.436;2023-03-31T15:47:18;4.60;;;1.20;;
78916;SDS011;68315;48.608;11.436;2023-03-31T15:49:52;5.18;;;1.00;;
78916;SDS011;68315;48.608;11.436;2023-03-31T15:52:19;3.03;;;1.00;;
78916;SDS011;68315;48.608;11.436;2023-03-31T15:54:46;3.50;;;1.00;;
78916;SDS011;68315;48.608;11.436;2023-03-31T15:57:14;5.43;;;0.95;;
78916;SDS011;68315;48.608;11.436;2023-03-31T16:02:16;3.08;;;0.90;;
78916;SDS011;68315;48.608;11.436;2023-03-31T16:04:48;2.15;;;0.90;;
78916;SDS011;68315;48.608;11.436;2023-03-31T16:07:21;6.07;;;0.90;;
78916;SDS011;68315;48.608;11.436;2023-03-31T16:12:18;2.17;;;0.80;;
78916;SDS011;68315;48.608;11.436;2023-03-31T16:17:37;3.30;;;0.85;;
78916;SDS011;68315;48.608;11.436;2023-03-31T16:20:18;2.45;;;0.93;;
78916;SDS011;68315;48.608;11.436;2023-03-31T16:22:47;2.45;;;0.70;;
78916;SDS011;68315;48.608;11.436;2023-03-31T16:25:16;1.92;;;0.90;;
78916;SDS011;68315;48.608;11.436;2023-03-31T16:27:44;1.88;;;0.60;;
78916;SDS011;68315;48.608;11.436;2023-03-31T16:30:13;2.58;;;1.02;;
78916;SDS011;68315;48.608;11.436;2023-03-31T16:35:32;2.40;;;0.88;;
78916;SDS011;68315;48.608;11.436;2023-03-31T16:37:58;2.70;;;0.90;;
78916;SDS011;68315;48.608;11.436;2023-03-31T16:40:30;2.42;;;0.82;;
78916;SDS011;68315;48.608;11.436;2023-03-31T16:45:48;1.92;;;1.20;;
78916;SDS011;68315;48.608;11.436;2023-03-31T16:48:15;4.15;;;1.27;;
78916;SDS011;68315;48.608;11.436;2023-03-31T16:50:43;2.97;;;1.00;;
78916;SDS011;68315;48.608;11.436;2023-03-31T16:53:11;2.70;;;1.02;;
78916;SDS011;68315;48.608;11.436;2023-03-31T16:55:37;3.00;;;1.17;;
78916;SDS011;68315;48.608;11.436;2023-03-31T16:58:03;2.85;;;1.17;;
78916;SDS011;68315;48.608;11.436;2023-03-31T17:00:29;3.20;;;1.08;;
78916;SDS011;68315;48.608;11.436;2023-03-31T17:02:55;2.42;;;1.17;;
78916;SDS011;68315;48.608;11.436;2023-03-31T17:05:21;1.75;;;0.98;;
78916;SDS011;68315;48.608;11.436;2023-03-31T17:07:47;2.08;;;1.05;;
78916;SDS011;68315;48.608;11.436;2023-03-31T17:10:12;2.13;;;0.95;;
78916;SDS011;68315;48.608;11.436;2023-03-31T17:12:38;2.63;;;0.90;;
78916;SDS011;68315;48.608;11.436;2023-03-31T17:15:03;1.65;;;1.00;;
78916;SDS011;68315;48.608;11.436;2023-03-31T17:17:28;2.97;;;1.10;;
78916;SDS011;68315;48.608;11.436;2023-03-31T17:19:54;1.90;;;0.85;;
78916;SDS011;68315;48.608;11.436;2023-03-31T17:22:19;3.58;;;1.17;;
78916;SDS011;68315;48.608;11.436;2023-03-31T17:24:44;4.13;;;1.00;;
78916;SDS011;68315;48.608;11.436;2023-03-31T17:27:10;2.35;;;0.90;;